Time;durP1;ratioP1;P1;durP2;ratioP2;P2;SDS_P1;SDS_P2;PMS_P1;PMS_P2;Temp;Humidity;BMP_temperature;BMP_pressure;BME280_temperature;BME280_humidity;BME280_pressure;Samples;Min_cycle;Max_cycle;Signal;HPM_P1;HPM_P2
2022/07/04 00:00:05;;;;;;;2.13;1.50;;;23.90;55.20;;;;;;5056020;28;20029;-52
2022/07/04 00:02:31;;;;;;;3.03;1.73;;;24.00;55.50;;;;;;5042540;28;20036;-54
2022/07/04 00:04:57;;;;;;;1.95;1.63;;;24.00;55.30;;;;;;5044210;28;20051;-52
2022/07/04 00:07:22;;;;;;;2.65;1.70;;;23.90;55.60;;;;;;5050267;28;20078;-55
2022/07/04 00:09:48;;;;;;;2.33;1.60;;;23.90;55.70;;;;;;5063896;28;20043;-55
2022/07/04 00:12:13;;;;;;;1.63;1.52;;;23.90;56.30;;;;;;5064211;28;20128;-55
2022/07/04 00:14:39;;;;;;;1.85;1.73;;;23.90;55.80;;;;;;5063908;28;20123;-54
2022/07/04 00:17:04;;;;;;;6.70;1.75;;;23.90;56.20;;;;;;5064224;28;20398;-59
2022/07/04 00:19:30;;;;;;;1.77;1.67;;;23.90;55.40;;;;;;5063022;28;20051;-57
2022/07/04 00:21:55;;;;;;;2.35;1.20;;;23.90;55.30;;;;;;5063405;28;20029;-56
2022/07/04 00:24:21;;;;;;;1.80;1.25;;;23.80;54.80;;;;;;5064390;28;20021;-58
2022/07/04 00:26:46;;;;;;;2.42;1.20;;;23.80;55.00;;;;;;5064074;28;20029;-55
2022/07/04 00:29:12;;;;;;;1.98;1.60;;;23.80;54.60;;;;;;5063209;28;20502;-55
2022/07/04 00:31:37;;;;;;;3.83;1.60;;;23.70;54.20;;;;;;5062415;28;20032;-55
2022/07/04 00:34:03;;;;;;;3.40;1.75;;;23.80;54.30;;;;;;5064085;28;20495;-60
2022/07/04 00:36:28;;;;;;;2.83;1.45;;;23.80;54.40;;;;;;5064246;28;20065;-51
2022/07/04 00:38:54;;;;;;;3.25;1.58;;;23.80;54.50;;;;;;5049556;28;20025;-57
2022/07/04 00:41:19;;;;;;;2.47;1.40;;;23.80;54.50;;;;;;5044231;28;20029;-53
2022/07/04 00:44:01;;;;;;;1.55;1.40;;;23.70;54.30;;;;;;5043855;28;20496;-55
2022/07/04 00:46:27;;;;;;;1.58;1.48;;;23.80;54.50;;;;;;5042034;28;20029;-55
2022/07/04 00:48:52;;;;;;;2.42;1.40;;;23.80;55.00;;;;;;5043582;28;20029;-59
2022/07/04 00:51:18;;;;;;;1.75;1.40;;;23.80;54.60;;;;;;5040521;28;20511;-59
2022/07/04 00:53:44;;;;;;;3.72;1.55;;;23.70;54.50;;;;;;5042359;28;20047;-56
2022/07/04 00:56:10;;;;;;;2.83;1.20;;;23.70;54.90;;;;;;5042300;28;20055;-53
2022/07/04 00:58:35;;;;;;;4.22;1.38;;;23.70;54.70;;;;;;5034119;28;20029;-56
2022/07/04 01:01:01;;;;;;;3.22;1.35;;;23.70;54.60;;;;;;5045523;28;20035;-57
2022/07/04 01:03:26;;;;;;;2.33;1.50;;;23.80;55.10;;;;;;5057041;28;20462;-59
2022/07/04 01:05:52;;;;;;;2.72;1.10;;;23.80;54.90;;;;;;5043795;28;20017;-57
2022/07/04 01:08:17;;;;;;;3.00;1.42;;;23.70;54.90;;;;;;5042088;28;20192;-59
2022/07/04 01:10:43;;;;;;;3.70;1.58;;;23.70;55.10;;;;;;5043078;28;20027;-57
2022/07/04 01:13:08;;;;;;;2.58;1.85;;;23.70;55.10;;;;;;5043322;28;20551;-53
2022/07/04 01:15:34;;;;;;;4.15;1.90;;;23.80;55.60;;;;;;5041850;28;20033;-58
2022/07/04 01:17:59;;;;;;;3.45;1.23;;;23.80;55.70;;;;;;5043942;28;20025;-57
2022/07/04 01:20:25;;;;;;;1.92;1.40;;;23.80;55.70;;;;;;5043451;28;20150;-54
2022/07/04 01:22:50;;;;;;;1.48;1.38;;;23.70;55.30;;;;;;5044212;28;20103;-54
2022/07/04 01:25:16;;;;;;;2.30;1.23;;;23.70;55.40;;;;;;5043722;28;20139;-57
2022/07/04 01:27:42;;;;;;;1.55;1.10;;;23.70;55.60;;;;;;5042370;28;20487;-59
2022/07/04 01:30:08;;;;;;;2.03;1.20;;;23.80;56.20;;;;;;5042834;28;20025;-55
2022/07/04 01:32:33;;;;;;;2.80;1.60;;;23.80;56.30;;;;;;5043115;28;20049;-56
2022/07/04 01:34:59;;;;;;;2.65;1.38;;;23.80;56.30;;;;;;5042290;28;20242;-54
2022/07/04 01:37:25;;;;;;;1.83;1.30;;;23.80;55.90;;;;;;5043718;28;20032;-57
2022/07/04 01:39:50;;;;;;;1.30;1.15;;;23.80;56.00;;;;;;5045736;28;20021;-59
2022/07/04 01:42:16;;;;;;;4.85;1.27;;;23.80;56.50;;;;;;5046861;28;20032;-54
2022/07/04 01:44:41;;;;;;;3.25;1.25;;;23.80;56.50;;;;;;5047347;28;20075;-58
2022/07/04 01:47:07;;;;;;;2.30;1.40;;;23.80;56.30;;;;;;5047162;28;20557;-58
2022/07/04 01:49:32;;;;;;;1.67;1.17;;;23.70;55.90;;;;;;5046405;28;20021;-56
2022/07/04 01:51:58;;;;;;;1.73;1.38;;;23.80;56.60;;;;;;5045249;28;20617;-55
2022/07/04 01:54:25;;;;;;;3.00;1.38;;;23.70;56.60;;;;;;5047098;28;20399;-57
2022/07/04 01:56:50;;;;;;;1.40;1.25;;;23.70;56.50;;;;;;5046640;28;20032;-56
2022/07/04 01:59:15;;;;;;;2.40;1.52;;;23.70;56.50;;;;;;5046088;28;20094;-55
2022/07/04 02:01:41;;;;;;;1.55;1.20;;;23.70;56.40;;;;;;5047146;28;20398;-58
2022/07/04 02:04:07;;;;;;;2.83;1.48;;;23.70;56.70;;;;;;5046827;28;20483;-58
2022/07/04 02:06:33;;;;;;;2.33;1.23;;;23.70;56.50;;;;;;5028923;28;20036;-57
2022/07/04 02:09:16;;;;;;;2.03;1.30;;;23.70;55.80;;;;;;5043937;28;20208;-56
2022/07/04 02:14:27;;;;;;;2.03;1.30;;;23.50;55.50;;;;;;5051096;28;20426;-58
2022/07/04 02:16:53;;;;;;;1.35;1.25;;;23.50;56.80;;;;;;5066383;28;20025;-59
2022/07/04 02:19:18;;;;;;;2.00;1.10;;;23.50;56.30;;;;;;5066007;28;20032;-59
2022/07/04 02:21:44;;;;;;;2.33;1.30;;;23.50;56.20;;;;;;5066076;28;20013;-57
2022/07/04 02:24:10;;;;;;;2.53;1.63;;;23.60;56.70;;;;;;5066251;28;20028;-58
2022/07/04 02:26:35;;;;;;;2.13;1.33;;;23.60;56.70;;;;;;5066466;28;20017;-59
2022/07/04 02:29:01;;;;;;;4.25;1.30;;;23.60;56.10;;;;;;5062391;28;20025;-59
2022/07/04 02:31:26;;;;;;;1.75;1.38;;;23.60;56.30;;;;;;5066856;28;20063;-55
2022/07/04 02:33:52;;;;;;;1.98;1.30;;;23.60;57.00;;;;;;5066000;28;20033;-55
2022/07/04 02:36:17;;;;;;;1.70;1.45;;;23.60;56.80;;;;;;5065640;28;20032;-58
2022/07/04 02:38:43;;;;;;;1.63;1.38;;;23.60;56.30;;;;;;5065326;28;20044;-59
2022/07/04 02:41:08;;;;;;;2.47;1.42;;;23.60;56.80;;;;;;5065636;28;20762;-58
2022/07/04 02:43:34;;;;;;;1.52;1.13;;;23.60;56.30;;;;;;5065827;28;20029;-59
2022/07/04 02:45:59;;;;;;;4.30;1.83;;;23.60;56.80;;;;;;5065184;28;20104;-55
2022/07/04 02:48:25;;;;;;;3.55;1.27;;;23.50;56.50;;;;;;5065618;28;20048;-53
2022/07/04 02:50:50;;;;;;;4.03;1.80;;;23.50;56.80;;;;;;5065326;28;20024;-57
2022/07/04 02:53:16;;;;;;;4.22;1.67;;;23.50;56.70;;;;;;5066115;28;20044;-53
2022/07/04 02:55:41;;;;;;;3.28;1.83;;;23.50;56.80;;;;;;5066240;28;20032;-56
2022/07/04 02:58:07;;;;;;;2.92;1.75;;;23.50;56.80;;;;;;5065817;28;20025;-55
2022/07/04 03:00:32;;;;;;;1.60;1.50;;;23.50;56.60;;;;;;5063871;28;20509;-59
2022/07/04 03:02:58;;;;;;;3.00;1.83;;;23.50;56.70;;;;;;5066183;28;20039;-59
2022/07/04 03:05:23;;;;;;;1.50;1.35;;;23.50;56.80;;;;;;5065218;28;20044;-56
2022/07/04 03:07:49;;;;;;;2.97;2.63;;;23.50;57.00;;;;;;5065304;28;20036;-58
2022/07/04 03:10:14;;;;;;;3.53;1.90;;;23.50;56.50;;;;;;5065167;28;20044;-54
2022/07/04 03:12:40;;;;;;;2.05;1.42;;;23.50;56.80;;;;;;5065065;28;20028;-57
2022/07/04 03:15:06;;;;;;;5.25;1.70;;;23.50;57.40;;;;;;5065245;28;20505;-56
2022/07/04 03:17:31;;;;;;;2.33;1.85;;;23.50;57.20;;;;;;5065503;28;20125;-59
2022/07/04 03:19:57;;;;;;;2.85;1.73;;;23.50;57.20;;;;;;5064220;28;20415;-55
2022/07/04 03:22:22;;;;;;;1.98;1.80;;;23.50;57.40;;;;;;5065628;28;20029;-55
2022/07/04 03:24:48;;;;;;;1.73;1.63;;;23.50;57.50;;;;;;5065684;28;20441;-57
2022/07/04 03:27:13;;;;;;;2.55;1.65;;;23.50;57.30;;;;;;5064979;28;20036;-56
2022/07/04 03:29:39;;;;;;;1.77;1.67;;;23.50;57.30;;;;;;5064010;28;20139;-59
2022/07/04 03:32:05;;;;;;;2.90;1.92;;;23.50;57.40;;;;;;5050538;28;20041;-57
2022/07/04 03:34:30;;;;;;;3.13;2.63;;;23.50;57.20;;;;;;5043957;28;20037;-55
2022/07/04 03:36:56;;;;;;;2.70;1.85;;;23.50;57.40;;;;;;5044338;28;20029;-57
2022/07/04 03:39:21;;;;;;;3.13;2.03;;;23.50;56.80;;;;;;5044020;28;20056;-59
2022/07/04 03:41:47;;;;;;;2.17;1.90;;;23.50;57.20;;;;;;5044679;28;20032;-56
2022/07/04 03:44:13;;;;;;;1.65;1.55;;;23.50;57.40;;;;;;5045124;28;20029;-58
2022/07/04 03:46:38;;;;;;;2.72;1.85;;;23.50;57.20;;;;;;5045015;28;20051;-58
2022/07/04 03:49:04;;;;;;;3.70;2.10;;;23.50;57.20;;;;;;5044078;28;20603;-58
2022/07/04 03:51:29;;;;;;;4.65;2.35;;;23.50;57.20;;;;;;5027092;28;20025;-56
2022/07/04 03:53:55;;;;;;;3.42;2.30;;;23.30;57.50;;;;;;5044749;28;20037;-56
2022/07/04 03:56:20;;;;;;;3.35;2.20;;;23.20;57.30;;;;;;5042748;28;20032;-56
2022/07/04 03:58:48;;;;;;;4.25;2.45;;;23.00;57.30;;;;;;5044349;28;20502;-54
2022/07/04 04:01:15;;;;;;;4.40;2.50;;;23.00;57.50;;;;;;5043862;28;20060;-53
2022/07/04 04:06:25;;;;;;;3.28;2.05;;;23.00;57.70;;;;;;5034136;28;20036;-51
2022/07/04 04:08:51;;;;;;;3.45;2.30;;;23.00;57.80;;;;;;5024847;28;20026;-53
2022/07/04 04:11:16;;;;;;;4.30;2.40;;;22.90;57.90;;;;;;5028620;28;20036;-57
2022/07/04 04:13:42;;;;;;;4.43;2.65;;;22.90;58.30;;;;;;5044472;28;20029;-54
2022/07/04 04:16:07;;;;;;;2.88;2.60;;;22.90;58.30;;;;;;5038196;28;20187;-54
2022/07/04 04:18:33;;;;;;;6.97;2.42;;;22.90;58.50;;;;;;5044174;28;20033;-54
2022/07/04 04:20:58;;;;;;;7.18;2.50;;;22.80;58.40;;;;;;5043426;28;20060;-58
2022/07/04 04:23:24;;;;;;;11.55;2.78;;;22.80;58.40;;;;;;5044760;28;20069;-56
2022/07/04 04:25:49;;;;;;;6.20;2.72;;;22.80;58.50;;;;;;5042013;28;20036;-57
2022/07/04 04:28:15;;;;;;;10.27;2.40;;;22.80;58.60;;;;;;5044047;28;20040;-59
2022/07/04 04:30:40;;;;;;;13.52;3.25;;;22.80;59.20;;;;;;5043613;28;20418;-56
2022/07/04 04:33:06;;;;;;;9.73;2.90;;;22.80;59.00;;;;;;5043722;28;20488;-56
2022/07/04 04:35:31;;;;;;;9.57;3.33;;;22.80;58.50;;;;;;5042674;28;20106;-55
2022/07/04 04:37:58;;;;;;;9.85;3.28;;;22.80;58.40;;;;;;5042868;28;20033;-55
2022/07/04 04:40:23;;;;;;;15.23;3.33;;;22.80;58.40;;;;;;5037501;28;20032;-57
2022/07/04 04:42:48;;;;;;;11.75;3.08;;;22.80;58.30;;;;;;5037813;28;20029;-55
2022/07/04 04:45:14;;;;;;;7.68;2.78;;;22.90;58.20;;;;;;5037277;28;20486;-56
2022/07/04 04:47:40;;;;;;;12.95;3.00;;;22.90;58.40;;;;;;5038334;28;20075;-58
2022/07/04 04:50:10;;;;;;;11.60;3.38;;;22.90;58.40;;;;;;5038015;28;20017;-57
2022/07/04 04:52:35;;;;;;;6.80;3.17;;;22.90;58.40;;;;;;5082637;22;20610;-53
2022/07/04 04:55:01;;;;;;;15.10;3.83;;;22.90;58.20;;;;;;5077979;28;20047;-49
2022/07/04 04:57:26;;;;;;;7.90;2.63;;;22.90;58.80;;;;;;5086943;28;20031;-52
2022/07/04 04:59:52;;;;;;;5.22;3.05;;;22.90;58.80;;;;;;5097581;28;20027;-53
2022/07/04 05:02:17;;;;;;;8.85;2.85;;;22.90;58.50;;;;;;5097936;28;20027;-51
2022/07/04 05:04:43;;;;;;;6.75;2.67;;;23.00;58.80;;;;;;5098838;28;20694;-53
2022/07/04 05:07:08;;;;;;;6.85;2.55;;;23.10;58.60;;;;;;5097984;28;20031;-53
2022/07/04 05:09:34;;;;;;;10.82;2.58;;;23.10;58.70;;;;;;5096387;28;20047;-53
2022/07/04 05:11:59;;;;;;;4.70;2.70;;;23.10;58.50;;;;;;5097896;28;20369;-52
2022/07/04 05:14:25;;;;;;;4.47;2.35;;;23.20;58.50;;;;;;5101027;28;20697;-55
2022/07/04 05:16:50;;;;;;;4.18;2.45;;;23.20;58.50;;;;;;5102442;27;20035;-54
2022/07/04 05:19:16;;;;;;;6.75;2.63;;;23.30;58.50;;;;;;5101643;27;20059;-52
2022/07/04 05:21:41;;;;;;;7.15;2.65;;;23.20;58.40;;;;;;5103106;27;20168;-52
2022/07/04 05:24:07;;;;;;;7.03;2.50;;;23.30;58.40;;;;;;5102803;28;20546;-52
2022/07/04 05:26:32;;;;;;;8.20;2.65;;;23.20;59.00;;;;;;5102141;27;20032;-53
2022/07/04 05:28:58;;;;;;;6.28;2.75;;;23.30;59.80;;;;;;5101082;27;20020;-53
2022/07/04 05:31:24;;;;;;;5.88;2.47;;;23.30;59.40;;;;;;5102328;27;20088;-51
2022/07/04 05:33:51;;;;;;;7.97;3.03;;;23.30;59.30;;;;;;5100886;28;20032;-53
2022/07/04 05:36:16;;;;;;;16.80;4.28;;;23.30;59.10;;;;;;5102033;28;20031;-52
2022/07/04 05:38:42;;;;;;;16.92;4.50;;;23.30;59.10;;;;;;5101904;27;20027;-51
2022/07/04 05:41:08;;;;;;;19.30;4.35;;;23.40;59.10;;;;;;5102522;28;20527;-54
2022/07/04 05:43:34;;;;;;;14.73;3.72;;;23.40;58.80;;;;;;5102003;28;20539;-52
2022/07/04 05:45:59;;;;;;;14.30;3.70;;;23.40;58.70;;;;;;5100625;27;20028;-56
2022/07/04 05:48:25;;;;;;;16.42;3.80;;;23.40;58.70;;;;;;5101791;28;20032;-52
2022/07/04 05:50:50;;;;;;;17.35;4.30;;;23.50;58.70;;;;;;5101852;27;20035;-53
2022/07/04 05:53:15;;;;;;;21.02;4.80;;;23.40;58.90;;;;;;5100550;27;20320;-51
2022/07/04 05:55:42;;;;;;;17.83;4.10;;;23.50;59.20;;;;;;5102254;28;20024;-52
2022/07/04 05:58:07;;;;;;;22.25;4.30;;;23.50;59.10;;;;;;5102516;27;20290;-51
2022/07/04 06:00:33;;;;;;;19.13;3.92;;;23.50;58.90;;;;;;5100956;28;20024;-52
2022/07/04 06:02:58;;;;;;;16.85;4.25;;;23.50;58.70;;;;;;5098720;27;20514;-53
2022/07/04 06:05:24;;;;;;;11.85;4.47;;;23.50;58.90;;;;;;5081303;28;20040;-51
2022/07/04 06:07:50;;;;;;;13.30;3.50;;;23.40;58.00;;;;;;5081439;28;20115;-52
2022/07/04 06:10:15;;;;;;;14.13;3.08;;;23.40;58.30;;;;;;5080590;28;20073;-52
2022/07/04 06:12:41;;;;;;;5.93;3.10;;;23.50;58.20;;;;;;5081480;28;20501;-53
2022/07/04 06:15:06;;;;;;;17.05;3.00;;;23.30;57.60;;;;;;5082083;28;20043;-53
2022/07/04 06:17:32;;;;;;;14.20;3.28;;;23.10;58.70;;;;;;5080407;28;20561;-50
2022/07/04 06:19:57;;;;;;;10.52;3.53;;;23.30;59.30;;;;;;5080848;28;20043;-51
2022/07/04 06:22:23;;;;;;;13.15;4.05;;;23.30;57.40;;;;;;5081878;28;20035;-55
2022/07/04 06:24:48;;;;;;;17.13;3.78;;;23.30;58.80;;;;;;5081607;28;20387;-56
2022/07/04 06:27:14;;;;;;;15.88;4.05;;;23.40;59.40;;;;;;5081308;28;20505;-52
2022/07/04 06:29:40;;;;;;;14.73;4.03;;;23.50;59.60;;;;;;5080770;28;20406;-53
2022/07/04 06:32:06;;;;;;;20.23;3.97;;;23.50;59.40;;;;;;5081668;28;20089;-50
2022/07/04 06:37:16;;;;;;;13.75;3.80;;;23.50;59.10;;;;;;5081240;28;20030;-52
2022/07/04 06:39:41;;;;;;;16.60;4.38;;;23.50;58.50;;;;;;5080572;28;20103;-53
2022/07/04 06:42:07;;;;;;;14.80;3.00;;;23.50;58.90;;;;;;5081400;28;20039;-52
2022/07/04 06:44:32;;;;;;;15.23;3.00;;;23.50;58.60;;;;;;5081376;28;20474;-55
2022/07/04 06:46:58;;;;;;;17.42;3.85;;;23.60;59.20;;;;;;5080397;28;20028;-53
2022/07/04 06:49:23;;;;;;;16.00;3.30;;;23.50;58.50;;;;;;5079760;28;20079;-53
2022/07/04 06:51:49;;;;;;;9.00;2.88;;;23.50;58.60;;;;;;5080574;28;20069;-52
2022/07/04 06:54:15;;;;;;;10.88;3.13;;;23.50;58.30;;;;;;5080020;28;20044;-55
2022/07/04 06:56:41;;;;;;;15.43;3.20;;;23.60;58.30;;;;;;5080495;28;20028;-52
2022/07/04 06:59:06;;;;;;;13.65;2.90;;;23.60;58.30;;;;;;5080162;28;20097;-55
2022/07/04 07:01:32;;;;;;;15.13;2.63;;;23.60;58.20;;;;;;5080716;28;20029;-51
2022/07/04 07:03:57;;;;;;;11.80;2.97;;;23.60;58.70;;;;;;5079797;28;20036;-54
2022/07/04 07:06:23;;;;;;;14.80;3.92;;;23.60;58.50;;;;;;5079127;28;20560;-54
2022/07/04 07:08:49;;;;;;;11.57;2.40;;;23.50;58.10;;;;;;5079668;28;20027;-54
2022/07/04 07:11:17;;;;;;;12.00;2.72;;;23.50;58.10;;;;;;5079774;28;20032;-52
2022/07/04 07:13:44;;;;;;;16.83;3.20;;;23.60;58.00;;;;;;5079890;28;20043;-56
2022/07/04 07:16:09;;;;;;;10.73;2.38;;;23.60;58.10;;;;;;5080136;28;20043;-52
2022/07/04 07:18:35;;;;;;;21.40;3.55;;;23.50;58.40;;;;;;5080015;28;20028;-53
2022/07/04 07:21:00;;;;;;;13.75;3.05;;;23.60;58.50;;;;;;5080058;28;20460;-55
2022/07/04 07:23:26;;;;;;;15.35;3.17;;;23.60;57.80;;;;;;5080032;28;20085;-54
2022/07/04 07:25:51;;;;;;;13.18;3.17;;;23.60;58.50;;;;;;5079759;28;20024;-52
2022/07/04 07:28:18;;;;;;;11.32;3.25;;;23.60;58.30;;;;;;5079398;28;20086;-52
2022/07/04 07:30:43;;;;;;;8.85;2.75;;;23.50;58.20;;;;;;5079578;28;20024;-53
2022/07/04 07:33:09;;;;;;;9.77;2.92;;;23.50;57.90;;;;;;5079417;28;20390;-52
2022/07/04 07:35:34;;;;;;;10.63;2.67;;;23.40;57.30;;;;;;5080334;28;20486;-53
2022/07/04 07:38:00;;;;;;;11.07;2.35;;;23.40;58.00;;;;;;5079899;28;20032;-54
2022/07/04 07:40:25;;;;;;;3.63;2.17;;;23.40;58.10;;;;;;5079135;28;20060;-53
2022/07/04 07:42:52;;;;;;;4.70;1.60;;;23.50;58.00;;;;;;5079196;28;20035;-53
2022/07/04 07:45:17;;;;;;;5.60;1.83;;;23.50;57.80;;;;;;5079544;28;20029;-52
2022/07/04 07:47:43;;;;;;;8.77;2.05;;;23.50;57.00;;;;;;5078416;28;20733;-51
2022/07/04 07:50:09;;;;;;;5.20;1.70;;;23.50;57.70;;;;;;5078529;28;20112;-49
2022/07/04 07:52:34;;;;;;;5.63;1.85;;;23.40;56.70;;;;;;5079664;28;20046;-53
2022/07/04 07:55:00;;;;;;;4.63;2.03;;;23.40;57.00;;;;;;5079244;28;20374;-54
2022/07/04 07:57:25;;;;;;;3.72;1.70;;;23.40;57.10;;;;;;5079024;28;20036;-56
2022/07/04 07:59:51;;;;;;;4.03;1.45;;;23.40;56.80;;;;;;5077018;28;20037;-53
2022/07/04 08:02:16;;;;;;;4.22;1.83;;;23.50;57.20;;;;;;5079051;28;20245;-51
2022/07/04 08:04:42;;;;;;;7.13;1.98;;;23.50;57.20;;;;;;5077258;28;20059;-50
2022/07/04 08:07:08;;;;;;;3.50;1.80;;;23.50;57.10;;;;;;5078917;28;20386;-52
2022/07/04 08:09:34;;;;;;;3.80;1.65;;;23.50;57.00;;;;;;5078804;28;20445;-53
2022/07/04 08:12:00;;;;;;;5.63;1.70;;;23.40;56.70;;;;;;5077971;28;20028;-52
2022/07/04 08:14:26;;;;;;;5.38;1.38;;;23.50;56.60;;;;;;5077754;28;20035;-53
2022/07/04 08:16:51;;;;;;;6.28;2.00;;;23.50;56.80;;;;;;5078067;28;20108;-55
2022/07/04 08:19:16;;;;;;;4.00;1.33;;;23.50;56.80;;;;;;5078256;28;20561;-55
2022/07/04 08:21:42;;;;;;;3.83;1.58;;;23.50;56.50;;;;;;5077827;28;20035;-57
2022/07/04 08:24:08;;;;;;;2.80;1.42;;;23.40;56.00;;;;;;5079858;28;20028;-58
2022/07/04 08:26:33;;;;;;;2.67;1.50;;;23.50;56.60;;;;;;5079211;28;20502;-54
2022/07/04 08:28:59;;;;;;;4.80;1.48;;;23.50;56.60;;;;;;5078137;28;20024;-52
2022/07/04 08:31:25;;;;;;;3.83;1.58;;;23.50;56.10;;;;;;5078345;28;20036;-54
2022/07/04 08:33:51;;;;;;;6.57;1.73;;;23.50;56.20;;;;;;5076981;28;20040;-57
2022/07/04 08:36:18;;;;;;;4.75;1.65;;;23.50;56.40;;;;;;5087704;28;20055;-52
2022/07/04 08:38:43;;;;;;;2.75;1.30;;;23.50;55.30;;;;;;5096805;28;20024;-55
2022/07/04 08:41:08;;;;;;;2.00;0.80;;;23.50;56.30;;;;;;5090695;28;20058;-54
2022/07/04 08:43:36;;;;;;;2.45;1.20;;;23.50;56.30;;;;;;5079346;28;20020;-51
2022/07/04 08:46:03;;;;;;;4.13;1.40;;;23.50;56.10;;;;;;5078952;28;20028;-53
2022/07/04 08:48:29;;;;;;;2.38;1.10;;;23.50;56.10;;;;;;5077789;28;20044;-52
2022/07/04 08:50:56;;;;;;;4.55;1.40;;;23.50;56.10;;;;;;5076803;28;20050;-56
2022/07/04 08:53:22;;;;;;;3.42;1.40;;;23.50;56.10;;;;;;5078516;28;20101;-54
2022/07/04 08:58:33;;;;;;;1.40;1.30;;;23.50;56.20;;;;;;5076705;28;20116;-57
2022/07/04 09:00:59;;;;;;;6.10;1.40;;;23.50;56.30;;;;;;5078670;28;20111;-52
2022/07/04 09:03:25;;;;;;;3.55;1.38;;;23.50;56.20;;;;;;5078467;28;20028;-55
2022/07/04 09:05:51;;;;;;;2.55;1.08;;;23.50;55.50;;;;;;5078787;28;20120;-56
2022/07/04 09:08:16;;;;;;;3.60;1.35;;;23.50;56.30;;;;;;5077788;28;20115;-53
2022/07/04 09:10:42;;;;;;;2.75;1.30;;;23.50;56.40;;;;;;5076257;28;20132;-54
2022/07/04 09:13:08;;;;;;;4.90;1.67;;;23.50;56.10;;;;;;5076933;28;20035;-52
2022/07/04 09:15:34;;;;;;;4.00;1.60;;;23.50;56.20;;;;;;5076790;28;20533;-53
2022/07/04 09:18:00;;;;;;;3.15;1.42;;;23.50;56.20;;;;;;5077749;28;20040;-54
2022/07/04 09:20:25;;;;;;;2.53;1.27;;;23.50;56.20;;;;;;5076802;28;20032;-54
2022/07/04 09:22:51;;;;;;;2.60;1.60;;;23.50;56.30;;;;;;5078094;28;20127;-52
2022/07/04 09:25:17;;;;;;;3.55;1.63;;;23.50;56.20;;;;;;5077886;28;20295;-55
2022/07/04 09:27:45;;;;;;;4.43;1.17;;;23.50;56.30;;;;;;5078031;28;20031;-53
2022/07/04 09:30:12;;;;;;;2.70;1.60;;;23.50;56.30;;;;;;5075773;28;20067;-51
2022/07/04 09:32:47;;;;;;;1.42;1.25;;;23.50;56.10;;;;;;5076968;28;20036;-52
2022/07/04 09:35:22;;;;;;;2.75;1.20;;;23.50;56.30;;;;;;5072633;28;20028;-51
2022/07/04 09:37:49;;;;;;;;;;;23.50;56.30;;;;;;5078563;28;20028;-53
2022/07/04 09:43:35;;;;;;;1.80;0.98;;;23.60;56.40;;;;;;5051570;28;20506;-52
2022/07/04 09:46:01;;;;;;;2.50;1.50;;;23.60;56.40;;;;;;5056537;28;20041;-53
2022/07/04 09:48:27;;;;;;;4.32;1.67;;;23.50;55.70;;;;;;5074904;28;20081;-55
2022/07/04 09:50:52;;;;;;;3.88;1.25;;;23.50;56.30;;;;;;5059850;28;20482;-51
2022/07/04 09:53:18;;;;;;;1.67;1.23;;;23.60;56.30;;;;;;5077565;28;20040;-52
2022/07/04 09:55:45;;;;;;;1.88;1.42;;;23.60;56.30;;;;;;5078326;28;20510;-52
2022/07/04 09:58:14;;;;;;;2.85;1.20;;;23.50;55.90;;;;;;5075860;28;20059;-53
2022/07/04 10:00:42;;;;;;;3.45;1.60;;;23.60;56.10;;;;;;5062812;28;20442;-53
2022/07/04 10:03:16;;;;;;;2.17;1.20;;;23.60;56.20;;;;;;5082114;28;20401;-51
2022/07/04 10:05:42;;;;;;;2.73;1.50;;;23.60;56.10;;;;;;5080902;28;20032;-52
2022/07/04 10:08:07;;;;;;;2.90;1.40;;;23.60;55.90;;;;;;5080500;28;20273;-54
2022/07/04 10:10:34;;;;;;;3.53;1.33;;;23.60;56.00;;;;;;5080591;28;20024;-54
2022/07/04 10:13:02;;;;;;;1.42;1.13;;;23.60;56.00;;;;;;5081787;28;20044;-54
2022/07/04 10:15:28;;;;;;;1.98;1.35;;;23.60;56.00;;;;;;5083080;28;20028;-54
2022/07/04 10:17:53;;;;;;;5.30;1.83;;;23.60;56.20;;;;;;5081865;28;20513;-56
2022/07/04 10:20:19;;;;;;;2.00;1.20;;;23.60;55.80;;;;;;5082370;28;20028;-56
2022/07/04 10:22:44;;;;;;;3.25;1.60;;;23.60;55.30;;;;;;5083238;28;20047;-56
2022/07/04 10:25:10;;;;;;;3.20;1.40;;;23.60;53.90;;;;;;5082832;28;20050;-52
2022/07/04 10:27:36;;;;;;;10.93;2.05;;;23.60;55.20;;;;;;5080761;28;20028;-55
2022/07/04 10:30:04;;;;;;;2.05;1.42;;;23.60;55.40;;;;;;5080616;28;20572;-53
2022/07/04 10:32:29;;;;;;;1.40;1.20;;;23.60;55.50;;;;;;5079643;28;20047;-58
2022/07/04 10:34:55;;;;;;;1.20;1.10;;;23.60;55.20;;;;;;5080121;28;20656;-54
2022/07/04 10:37:21;;;;;;;2.75;1.25;;;23.60;55.70;;;;;;5080597;28;20093;-54
2022/07/04 10:39:47;;;;;;;5.18;1.85;;;23.60;55.70;;;;;;5062822;28;20032;-59
2022/07/04 10:42:24;;;;;;;2.90;1.23;;;23.60;55.00;;;;;;5079586;28;20047;-58
2022/07/04 10:44:50;;;;;;;2.88;1.35;;;23.60;55.30;;;;;;5080862;28;20086;-59
2022/07/04 10:47:27;;;;;;;1.45;1.20;;;23.60;55.30;;;;;;5081319;28;20024;-58
2022/07/04 10:49:53;;;;;;;2.40;1.52;;;23.60;55.20;;;;;;5079266;28;20048;-58
2022/07/04 10:52:18;;;;;;;2.78;1.20;;;23.70;55.50;;;;;;5079426;28;20173;-59
2022/07/04 10:54:44;;;;;;;2.63;1.60;;;23.60;55.10;;;;;;5081071;28;20097;-59
2022/07/04 10:57:20;;;;;;;4.05;1.80;;;23.60;55.00;;;;;;5079718;28;20028;-59
2022/07/04 10:59:56;;;;;;;5.40;1.50;;;23.60;54.40;;;;;;5080205;28;20020;-56
2022/07/04 11:02:25;;;;;;;2.95;1.55;;;23.60;54.70;;;;;;5080162;28;20044;-55
2022/07/04 11:04:55;;;;;;;3.10;1.50;;;23.60;54.70;;;;;;5080130;28;20271;-58
2022/07/04 11:07:29;;;;;;;1.50;1.40;;;23.70;55.10;;;;;;5078841;28;20152;-56
2022/07/04 11:10:13;;;;;;;2.78;1.65;;;23.60;55.10;;;;;;5079839;28;20028;-58
2022/07/04 11:12:54;;;;;;;2.05;1.13;;;23.60;55.10;;;;;;5079555;28;20039;-52
2022/07/04 11:15:28;;;;;;;1.88;1.08;;;23.70;55.30;;;;;;5079226;28;20402;-59
2022/07/04 11:17:55;;;;;;;5.15;1.45;;;23.70;55.30;;;;;;5080548;28;20048;-59
2022/07/04 11:20:21;;;;;;;2.80;1.50;;;23.70;55.30;;;;;;5079871;28;20032;-59
2022/07/04 11:22:46;;;;;;;1.60;1.20;;;23.70;55.30;;;;;;5079278;28;20035;-58
2022/07/04 11:25:12;;;;;;;2.83;1.42;;;23.70;55.30;;;;;;5079943;28;20024;-53
2022/07/04 11:27:38;;;;;;;3.92;1.25;;;23.70;55.40;;;;;;5061868;28;20405;-55
2022/07/04 11:30:04;;;;;;;2.80;1.80;;;23.70;55.40;;;;;;5078948;28;20028;-53
2022/07/04 11:32:30;;;;;;;2.75;1.45;;;23.70;55.40;;;;;;5077940;28;21950;-52
2022/07/04 11:34:56;;;;;;;3.17;1.38;;;23.70;55.40;;;;;;5078536;28;20032;-54
2022/07/04 11:37:21;;;;;;;4.15;1.42;;;23.70;55.30;;;;;;5078591;28;20028;-51
2022/07/04 11:45:02;;;;;;;2.42;1.63;;;23.70;55.40;;;;;;5079111;28;20089;-51
2022/07/04 11:45:24;;;;;;;3.47;1.80;;;23.70;54.90;;;;;;5079291;28;20054;-54
2022/07/04 11:47:49;;;;;;;2.53;1.40;;;23.70;54.70;;;;;;5079925;28;20024;-56
2022/07/04 11:50:18;;;;;;;3.38;1.55;;;23.70;54.70;;;;;;5079006;28;20449;-54
2022/07/04 11:52:48;;;;;;;1.50;1.30;;;23.70;55.00;;;;;;5077820;28;20121;-55
2022/07/04 11:55:15;;;;;;;3.05;1.67;;;23.70;54.80;;;;;;5079101;28;20111;-56
2022/07/04 11:57:43;;;;;;;4.75;1.55;;;23.70;54.80;;;;;;5061572;28;20040;-58
2022/07/04 12:00:10;;;;;;;2.35;1.55;;;23.70;54.70;;;;;;5058259;28;20438;-59
2022/07/04 12:02:36;;;;;;;1.65;1.50;;;23.70;54.90;;;;;;5041832;28;20542;-57
2022/07/04 12:05:03;;;;;;;1.85;1.48;;;23.70;54.60;;;;;;5069973;28;20032;-53
2022/07/04 12:07:32;;;;;;;1.92;1.33;;;23.80;54.80;;;;;;5077682;28;20172;-57
2022/07/04 12:09:57;;;;;;;2.97;1.55;;;23.70;54.80;;;;;;5076859;28;20032;-58
2022/07/04 12:12:23;;;;;;;3.47;1.40;;;23.70;54.60;;;;;;5060393;28;20024;-57
2022/07/04 12:15:05;;;;;;;1.58;1.40;;;23.80;54.80;;;;;;5078976;28;20024;-54
2022/07/04 12:17:32;;;;;;;2.42;1.42;;;23.80;54.70;;;;;;5079564;28;20051;-58
2022/07/04 12:19:58;;;;;;;2.35;1.33;;;23.80;54.80;;;;;;5077877;28;20077;-58
2022/07/04 12:22:29;;;;;;;2.38;1.50;;;23.80;54.80;;;;;;5078804;28;20032;-56
2022/07/04 12:24:55;;;;;;;3.72;1.40;;;23.80;54.80;;;;;;5078955;28;20038;-56
2022/07/04 12:27:20;;;;;;;2.40;1.40;;;23.80;54.70;;;;;;5078899;28;20111;-57
2022/07/04 12:29:49;;;;;;;3.38;1.73;;;23.80;54.60;;;;;;5077993;28;20073;-56
2022/07/04 12:32:15;;;;;;;1.50;1.40;;;23.80;54.60;;;;;;5078172;28;20440;-57
2022/07/04 12:34:41;;;;;;;1.42;1.33;;;23.80;54.60;;;;;;5057552;28;20021;-54
2022/07/04 12:37:09;;;;;;;3.55;1.80;;;23.80;54.50;;;;;;5058582;28;20090;-55
2022/07/04 12:39:37;;;;;;;2.25;1.52;;;23.80;54.50;;;;;;5060111;28;20047;-55
2022/07/04 12:42:23;;;;;;;3.05;1.35;;;23.80;54.40;;;;;;5078516;28;20043;-55
2022/07/04 12:44:52;;;;;;;;;;;23.80;54.50;;;;;;5077223;28;21780;-55
2022/07/04 12:47:18;;;;;;;2.25;1.38;;;23.90;54.00;;;;;;5078685;28;19908;-56
2022/07/04 12:49:44;;;;;;;2.30;1.55;;;23.90;54.50;;;;;;5077949;28;20051;-58
2022/07/04 12:52:16;;;;;;;2.00;1.90;;;23.80;54.50;;;;;;5077650;28;20024;-57
2022/07/04 12:54:44;;;;;;;2.05;1.45;;;23.80;54.40;;;;;;5077435;28;20528;-58
2022/07/04 12:57:11;;;;;;;2.00;1.42;;;23.80;54.20;;;;;;5078488;28;20085;-55